Dunwoody, GA (30338)

9:48 AM EDT op 22 oktober 2014 (GMT -0400)
Wyntercreek/Meadowcreek | Change Station
CLOSE
Current Station
Persoonlijk weerstation
Location: Dunwoody, GA
Geometrische hoogte: 1072 ft
Nabije weerstations

Hoogte 1072 ft 33.95 °N, 84.33 °W | Updated 11 seconds ago

Helder
Helder
48.0 °F
Voelt als 48 °F
N
0.0
Wind Variabel Wind van WNW
Gusts 4.0 mijl/u

Vandaag
Hoog -- | Laag -- °F
--% Kans op neerslag
Gisteren
Hoog -- | Laag -- °F
Precip. -- inches
7:47 AM 6:54 PM
Afnemende halvemaan, 2% visible
Druk 30.11 inches
Zicht 10.0 mijlen
Wolken Helder
Gevoelstemperatuur 48 °F
Dauwpunt 24 °F
Vochtigheid 44%
Neerslag -999.00 inches
Dikte sneeuw Niet beschikbaar.
UV 1 van de 12
Pollen 2.70 van de 12
Ozon Goed
PM2.5 Matig
Flu Activity Sporadic
METAR KPDK 221253Z 32005KT 10SM CLR 09/03 A3010 RMK AO2 SLP194 T00940033

More Conditions Fewer Conditions

Druk 30.11 inches
Zicht 10.0 mijlen
Wolken Helder
Gevoelstemperatuur 48 °F
Dauwpunt 24 °F
Vochtigheid 44%
Neerslag -999.00 inches
Dikte sneeuw Niet beschikbaar.
UV 1 van de 12
Pollen 2.70 van de 12
Ozon Goed
PM2.5 Matig
Flu Activity Sporadic
METAR KPDK 221253Z 32005KT 10SM CLR 09/03 A3010 RMK AO2 SLP194 T00940033

More Conditions Fewer Conditions

10-Day Weather Forecast

Almanac

Astronomie

Oct. 22, 2014 Opkomst Ondergang
Werkelijke tijd 7:47 AM EDT 6:54 PM EDT
Burgerlijke schemering 7:22 AM EDT 7:20 PM EDT
Nautische schemering 6:53 AM EDT 7:49 PM EDT
Astronomische schemering 6:24 AM EDT 8:18 PM EDT
Maan 6:32 AM EDT 6:18 PM EDT
Golflengte van het zichtbare licht 11h 57m
Daglengte
11h 06m
Tomorrow will be 1m 58s shorter.
Afnemende halvemaan, 2% of the Moon is Illuminated
Vandaag
Afnemende halvemaan
oktober 23
Nieuw
oktober 30
Eerste kwartier
nov 6
Volle maan
nov 14
Laatste kwartier

Extremen vandaag

State Highs State Lows

Community

WunderPhotos

Upload Photos

1,763,919 foto’s ge-upload!

Nearby

Luchtkwaliteit

  Luchtkwaliteit LK-index Verontreinigende stof
Gisteren Goed
PM10
Gisteren Goed
OZONE
Actueel Matig
PM2.5
Actueel Goed
OZONE
woensdag Goed
OZONE
woensdag Goed
PM2.5

Dikte sneeuw

Station Depth Geometrische hoogte
Er is geen verse sneeuw gerapporteerd.

Aardbevingen

Stad Distance Mag. Time & Date
No recent earthquake activity has been reported nearby.
Minimum magnitude displayed is 2.5.

Watertemperatuur langs de kust

Plaats Temperatuur
Geen meldingen van stations

Nabije weerstations